Time;durP1;ratioP1;P1;durP2;ratioP2;P2;SDS_P1;SDS_P2;PMS_P1;PMS_P2;Temp;Humidity;BMP_temperature;BMP_pressure;BME280_temperature;BME280_humidity;BME280_pressure;Samples;Min_cycle;Max_cycle;Signal;HPM_P1;HPM_P2
2023/04/21 00:00:47;;;;;;;65.88;42.20;;;7.20;99.90;;;;;;5046994;28;20393;-74
2023/04/21 00:03:14;;;;;;;61.72;41.47;;;7.20;99.90;;;;;;5029800;28;20071;-73
2023/04/21 00:05:42;;;;;;;61.35;38.42;;;7.10;99.90;;;;;;5047305;28;20129;-74
2023/04/21 00:08:09;;;;;;;49.40;34.38;;;7.10;99.90;;;;;;5049083;28;20090;-74
2023/04/21 00:10:37;;;;;;;49.78;35.25;;;7.00;99.90;;;;;;5029075;28;20156;-74
2023/04/21 00:13:04;;;;;;;54.83;36.55;;;7.00;99.90;;;;;;5049798;28;20074;-74
2023/04/21 00:15:32;;;;;;;50.80;35.30;;;6.90;99.90;;;;;;5049001;28;20128;-74
2023/04/21 00:18:00;;;;;;;54.35;35.40;;;6.90;99.90;;;;;;5047382;28;20513;-73
2023/04/21 00:20:28;;;;;;;46.78;33.40;;;6.80;99.90;;;;;;5046845;28;20045;-75
2023/04/21 00:22:56;;;;;;;41.78;30.52;;;6.80;99.90;;;;;;5048298;28;20071;-73
2023/04/21 00:25:24;;;;;;;41.03;27.65;;;6.70;99.90;;;;;;5047826;28;20049;-74
2023/04/21 00:27:51;;;;;;;39.47;28.30;;;6.70;99.90;;;;;;5031894;28;20044;-73
2023/04/21 00:30:19;;;;;;;41.03;27.42;;;6.70;99.90;;;;;;5033432;28;20048;-75
2023/04/21 00:32:46;;;;;;;43.42;29.88;;;6.80;99.90;;;;;;5053398;28;20140;-74
2023/04/21 00:35:15;;;;;;;45.67;30.35;;;6.80;99.90;;;;;;5034427;28;20040;-74
2023/04/21 00:37:43;;;;;;;40.15;27.92;;;6.80;99.90;;;;;;5032696;28;20139;-74
2023/04/21 00:40:12;;;;;;;43.72;28.63;;;6.80;99.90;;;;;;5031245;28;20374;-73
2023/04/21 00:42:41;;;;;;;40.47;29.02;;;6.80;99.90;;;;;;5032308;28;20103;-74
2023/04/21 00:45:09;;;;;;;42.78;30.38;;;6.80;99.90;;;;;;5033098;28;20095;-74
2023/04/21 00:47:36;;;;;;;48.50;32.10;;;6.70;99.90;;;;;;5049411;28;20485;-73
2023/04/21 00:50:04;;;;;;;45.97;31.05;;;6.70;99.90;;;;;;5033120;28;20091;-74
2023/04/21 00:52:34;;;;;;;46.80;32.33;;;6.70;99.90;;;;;;5049983;28;20056;-74
2023/04/21 00:55:04;;;;;;;50.13;32.70;;;6.70;99.90;;;;;;5032949;28;20401;-73
2023/04/21 00:57:32;;;;;;;56.25;36.90;;;6.70;99.90;;;;;;5035249;28;20504;-74
2023/04/21 01:00:00;;;;;;;81.25;50.58;;;6.70;99.90;;;;;;5033050;28;20060;-74
2023/04/21 01:02:28;;;;;;;88.32;53.67;;;6.70;99.90;;;;;;5050428;28;20041;-74
2023/04/21 01:04:56;;;;;;;84.75;52.03;;;6.60;99.90;;;;;;5033922;28;20524;-73
2023/04/21 01:07:25;;;;;;;70.95;43.92;;;6.60;99.90;;;;;;5032333;28;20129;-73
2023/04/21 01:09:54;;;;;;;71.05;43.40;;;6.60;99.90;;;;;;5050077;28;20128;-74
2023/04/21 01:12:23;;;;;;;54.38;34.75;;;6.60;99.90;;;;;;5049370;28;20041;-74
2023/04/21 01:14:51;;;;;;;56.00;38.17;;;6.60;99.90;;;;;;5031456;28;20047;-75
2023/04/21 01:17:19;;;;;;;61.05;41.53;;;6.60;99.90;;;;;;5065748;23;20040;-77
2023/04/21 01:19:48;;;;;;;56.25;38.58;;;6.60;99.90;;;;;;5045987;28;20089;-75
2023/04/21 01:22:17;;;;;;;55.95;38.53;;;6.50;99.90;;;;;;5055838;28;20051;-77
2023/04/21 01:24:47;;;;;;;50.65;36.13;;;6.50;99.90;;;;;;5050850;28;20436;-76
2023/04/21 01:27:17;;;;;;;54.72;38.58;;;6.50;99.90;;;;;;5048395;28;20043;-77
2023/04/21 01:29:46;;;;;;;52.97;37.75;;;6.50;99.90;;;;;;5045810;28;20136;-76
2023/04/21 01:32:15;;;;;;;53.03;39.58;;;6.50;99.90;;;;;;5024230;28;20950;-80
2023/04/21 01:34:43;;;;;;;50.10;38.25;;;6.40;99.90;;;;;;5057623;28;20045;-76
2023/04/21 01:37:12;;;;;;;49.22;36.55;;;6.30;99.90;;;;;;5044553;28;20041;-76
2023/04/21 01:39:42;;;;;;;46.20;35.75;;;6.20;99.90;;;;;;5021219;28;20044;-79
2023/04/21 01:42:10;;;;;;;47.42;33.65;;;6.30;99.90;;;;;;5037318;28;20064;-80
2023/04/21 01:44:38;;;;;;;41.60;31.13;;;6.20;99.90;;;;;;5025257;28;20549;-76
2023/04/21 01:47:06;;;;;;;46.78;32.17;;;6.20;99.90;;;;;;5061477;28;20049;-78
2023/04/21 01:49:34;;;;;;;44.72;31.05;;;6.20;99.90;;;;;;5063580;28;20042;-77
2023/04/21 01:52:01;;;;;;;42.08;30.45;;;6.20;99.90;;;;;;5064280;28;20048;-76
2023/04/21 01:54:29;;;;;;;41.03;30.75;;;6.10;99.90;;;;;;5054351;28;20041;-76
2023/04/21 01:56:58;;;;;;;48.45;30.25;;;6.00;99.90;;;;;;5076431;28;20052;-76
2023/04/21 01:59:26;;;;;;;43.08;28.92;;;6.00;99.90;;;;;;5061327;28;20108;-74
2023/04/21 02:01:53;;;;;;;46.97;30.02;;;6.00;99.90;;;;;;5079292;28;20044;-75
2023/04/21 02:04:21;;;;;;;47.88;31.45;;;6.10;99.90;;;;;;5059617;28;20058;-79
2023/04/21 02:06:48;;;;;;;48.28;32.83;;;6.10;99.90;;;;;;5049489;28;20049;-76
2023/04/21 02:09:16;;;;;;;51.28;33.05;;;6.10;99.90;;;;;;5041296;28;20062;-76
2023/04/21 02:11:43;;;;;;;67.63;39.25;;;6.10;99.90;;;;;;5065676;28;20480;-77
2023/04/21 02:14:13;;;;;;;63.53;40.95;;;6.10;99.90;;;;;;5048106;28;20040;-75
2023/04/21 02:16:41;;;;;;;77.25;47.00;;;6.10;99.90;;;;;;5047022;28;20040;-77
2023/04/21 02:19:08;;;;;;;65.00;40.30;;;6.00;99.90;;;;;;5044948;28;20044;-76
2023/04/21 02:21:36;;;;;;;67.28;42.28;;;6.00;99.90;;;;;;5062848;28;20060;-75
2023/04/21 02:24:04;;;;;;;50.97;35.78;;;5.90;99.90;;;;;;5044738;28;20396;-76
2023/04/21 02:26:32;;;;;;;59.40;37.50;;;5.90;99.90;;;;;;5055609;28;20032;-77
2023/04/21 02:29:01;;;;;;;54.00;37.65;;;6.00;99.90;;;;;;5060725;28;20047;-76
2023/04/21 02:31:30;;;;;;;51.63;35.83;;;6.00;99.90;;;;;;5054134;28;20044;-75
2023/04/21 02:33:58;;;;;;;61.65;39.72;;;6.00;99.90;;;;;;5066604;28;20123;-75
2023/04/21 02:36:26;;;;;;;53.60;33.83;;;5.90;99.90;;;;;;5069370;28;20045;-76
2023/04/21 02:38:58;;;;;;;44.55;30.05;;;5.80;99.90;;;;;;5063434;28;20060;-75
2023/04/21 02:41:25;;;;;;;48.90;32.03;;;5.70;99.90;;;;;;5057108;28;20151;-76
2023/04/21 02:43:53;;;;;;;46.80;32.45;;;5.60;99.90;;;;;;5060747;28;20037;-75
2023/04/21 02:46:22;;;;;;;40.78;27.67;;;5.60;99.90;;;;;;5061055;28;20143;-77
2023/04/21 02:48:51;;;;;;;45.83;30.63;;;5.60;99.90;;;;;;5055737;28;20207;-76
2023/04/21 02:51:19;;;;;;;47.88;33.28;;;5.70;99.90;;;;;;5064929;28;20037;-76
2023/04/21 02:53:47;;;;;;;47.80;32.28;;;5.70;99.90;;;;;;5070818;28;20040;-77
2023/04/21 02:56:14;;;;;;;56.13;33.63;;;5.70;99.90;;;;;;5058739;28;20041;-76
2023/04/21 02:58:43;;;;;;;46.55;31.48;;;5.70;99.90;;;;;;5057455;28;20036;-78
2023/04/21 03:01:11;;;;;;;48.35;31.88;;;5.70;99.90;;;;;;5055363;28;20663;-76
2023/04/21 03:03:38;;;;;;;54.00;30.23;;;5.70;99.90;;;;;;5055596;28;20065;-78
2023/04/21 03:06:07;;;;;;;51.97;32.35;;;5.60;99.90;;;;;;5066530;28;20094;-78
2023/04/21 03:08:35;;;;;;;47.05;31.50;;;5.60;99.90;;;;;;5059154;28;20060;-77
2023/04/21 03:11:03;;;;;;;48.08;30.17;;;5.60;99.90;;;;;;5058141;28;20051;-78
2023/04/21 03:13:30;;;;;;;47.72;30.95;;;5.60;99.90;;;;;;5064187;28;20564;-76
2023/04/21 03:15:58;;;;;;;48.92;32.78;;;5.70;99.90;;;;;;5073021;28;20504;-78
2023/04/21 03:18:26;;;;;;;54.28;35.88;;;5.60;99.90;;;;;;5058483;28;20090;-76
2023/04/21 03:21:00;;;;;;;58.20;37.65;;;5.70;99.90;;;;;;5057820;28;20040;-75
2023/04/21 03:23:29;;;;;;;67.13;45.30;;;5.70;99.90;;;;;;5061212;28;20044;-76
2023/04/21 03:25:57;;;;;;;68.05;46.13;;;5.60;99.90;;;;;;5060054;28;20576;-75
2023/04/21 03:28:25;;;;;;;68.88;45.22;;;5.50;99.90;;;;;;5058387;28;20041;-78
2023/04/21 03:30:52;;;;;;;77.78;54.17;;;5.50;99.90;;;;;;5055645;28;20114;-75
2023/04/21 03:33:20;;;;;;;73.25;50.92;;;5.50;99.90;;;;;;5057362;28;20060;-76
2023/04/21 03:35:47;;;;;;;68.10;46.38;;;5.40;99.90;;;;;;5071726;28;20116;-77
2023/04/21 03:38:15;;;;;;;43.13;33.50;;;5.40;99.90;;;;;;5079714;28;20036;-77
2023/04/21 03:40:44;;;;;;;40.47;31.20;;;5.40;99.90;;;;;;5071453;28;20041;-78
2023/04/21 03:43:12;;;;;;;39.63;29.05;;;5.30;99.90;;;;;;5075147;28;20052;-74
2023/04/21 03:45:40;;;;;;;41.47;30.08;;;5.30;99.90;;;;;;5082298;28;20048;-72
2023/04/21 03:48:08;;;;;;;40.42;29.33;;;5.30;99.90;;;;;;5060188;28;20041;-77
2023/04/21 03:50:36;;;;;;;43.97;28.60;;;5.40;99.90;;;;;;5062651;28;20033;-76
2023/04/21 03:53:03;;;;;;;43.28;27.15;;;5.40;99.90;;;;;;5083442;28;20045;-71
2023/04/21 03:55:31;;;;;;;47.55;28.05;;;5.40;99.90;;;;;;5072704;28;20044;-74
2023/04/21 03:58:00;;;;;;;46.90;29.45;;;5.40;99.90;;;;;;5090106;28;20075;-78
2023/04/21 04:00:27;;;;;;;47.63;31.67;;;5.40;99.90;;;;;;5080303;28;20109;-76
2023/04/21 04:02:55;;;;;;;49.13;33.42;;;5.40;99.90;;;;;;5080107;28;20049;-76
2023/04/21 04:05:22;;;;;;;51.03;32.90;;;5.50;99.90;;;;;;5098547;28;20033;-77
2023/04/21 04:07:50;;;;;;;54.72;35.22;;;5.50;99.90;;;;;;5077863;28;20037;-78
2023/04/21 04:10:17;;;;;;;55.40;34.10;;;5.50;99.90;;;;;;5063613;28;20064;-76
2023/04/21 04:12:45;;;;;;;46.95;32.63;;;5.50;99.90;;;;;;5056400;28;20130;-77
2023/04/21 04:15:14;;;;;;;65.38;34.28;;;5.60;99.90;;;;;;5062160;28;20120;-78
2023/04/21 04:17:41;;;;;;;58.83;34.38;;;5.60;99.90;;;;;;5060978;28;20049;-76
2023/04/21 04:20:09;;;;;;;62.72;33.60;;;5.60;99.90;;;;;;5063055;28;20134;-77
2023/04/21 04:22:37;;;;;;;57.50;35.15;;;5.70;99.90;;;;;;5056077;28;20049;-77
2023/04/21 04:25:05;;;;;;;52.67;33.10;;;5.70;99.90;;;;;;5056211;28;20033;-77
2023/04/21 04:27:33;;;;;;;49.67;33.70;;;5.80;99.90;;;;;;5077055;28;20033;-73
2023/04/21 04:30:00;;;;;;;52.80;35.67;;;5.90;99.90;;;;;;5084259;28;20032;-77
2023/04/21 04:32:30;;;;;;;66.88;39.75;;;6.00;99.90;;;;;;5070891;28;20057;-76
2023/04/21 04:34:57;;;;;;;49.72;32.72;;;6.10;99.90;;;;;;5081763;28;20048;-74
2023/04/21 04:37:25;;;;;;;48.35;32.38;;;6.20;99.90;;;;;;5076931;28;20037;-75
2023/04/21 04:39:53;;;;;;;54.35;32.55;;;6.40;99.90;;;;;;5068432;28;20036;-77
2023/04/21 04:42:21;;;;;;;78.10;44.65;;;6.60;99.90;;;;;;5057833;28;20049;-77
2023/04/21 04:44:49;;;;;;;68.00;39.22;;;6.80;99.90;;;;;;5055160;28;20049;-76
2023/04/21 04:47:17;;;;;;;58.78;35.13;;;6.90;99.90;;;;;;5059905;28;20036;-78
2023/04/21 04:49:45;;;;;;;49.42;32.00;;;6.90;99.90;;;;;;5058011;28;20627;-78
2023/04/21 04:52:14;;;;;;;42.65;28.10;;;6.90;99.90;;;;;;5056643;28;20489;-75
2023/04/21 04:54:42;;;;;;;54.85;34.42;;;7.10;99.90;;;;;;5060204;28;20509;-77
2023/04/21 04:57:09;;;;;;;55.45;33.05;;;7.10;99.90;;;;;;5060910;28;20048;-77
2023/04/21 04:59:37;;;;;;;59.88;34.83;;;7.10;99.90;;;;;;5059032;28;20054;-76
2023/04/21 05:02:04;;;;;;;53.97;34.42;;;7.30;99.90;;;;;;5059912;28;20045;-76
2023/04/21 05:04:33;;;;;;;59.28;35.70;;;7.40;99.90;;;;;;5060529;28;20642;-78
2023/04/21 05:07:02;;;;;;;61.78;36.42;;;7.60;99.90;;;;;;5060506;28;20380;-78
2023/04/21 05:09:30;;;;;;;54.92;36.13;;;7.70;99.90;;;;;;5058558;28;20480;-77
2023/04/21 05:11:57;;;;;;;52.72;33.80;;;7.90;99.90;;;;;;5059729;28;20102;-78
2023/04/21 05:14:25;;;;;;;54.42;33.72;;;7.90;99.90;;;;;;5059691;28;20056;-77
2023/04/21 05:16:52;;;;;;;52.33;34.33;;;8.00;99.90;;;;;;5061538;28;20253;-77
2023/04/21 05:19:20;;;;;;;55.03;34.83;;;8.20;99.90;;;;;;5060829;28;20053;-78
2023/04/21 05:21:47;;;;;;;53.95;32.72;;;8.50;99.90;;;;;;5061446;28;20051;-77
2023/04/21 05:24:22;;;;;;;51.10;33.63;;;8.70;99.90;;;;;;5060428;28;20082;-77
2023/04/21 05:26:52;;;;;;;49.22;32.78;;;9.10;99.90;;;;;;5058800;28;20060;-76
2023/04/21 05:29:19;;;;;;;49.55;30.40;;;9.60;99.90;;;;;;5060477;28;20128;-77
2023/04/21 05:31:47;;;;;;;37.42;27.52;;;10.00;99.90;;;;;;5062636;28;20611;-77
2023/04/21 05:34:15;;;;;;;37.80;27.90;;;10.20;99.90;;;;;;5059924;28;20052;-75
2023/04/21 05:36:42;;;;;;;45.03;31.77;;;10.50;99.90;;;;;;5063573;28;20041;-78
2023/04/21 05:39:15;;;;;;;43.78;31.25;;;10.70;99.90;;;;;;5058353;28;20044;-74
2023/04/21 05:41:44;;;;;;;31.33;23.52;;;11.00;99.90;;;;;;5052318;28;20040;-75
2023/04/21 05:44:12;;;;;;;38.10;28.65;;;11.00;99.90;;;;;;5071703;28;20041;-74
2023/04/21 05:46:40;;;;;;;41.10;30.10;;;11.20;99.90;;;;;;5060129;28;20578;-76
2023/04/21 05:49:07;;;;;;;36.45;29.73;;;11.40;99.90;;;;;;5057448;28;20056;-77
2023/04/21 05:51:34;;;;;;;38.70;29.10;;;11.50;99.90;;;;;;5058292;28;20037;-74
2023/04/21 05:54:03;;;;;;;35.20;28.52;;;11.70;99.90;;;;;;5061171;28;20036;-76
2023/04/21 05:56:30;;;;;;;37.53;29.60;;;11.80;99.90;;;;;;5057812;28;20041;-76
2023/04/21 05:58:59;;;;;;;38.45;28.50;;;11.70;99.90;;;;;;5061869;28;20125;-75
2023/04/21 06:01:27;;;;;;;41.40;29.50;;;11.60;99.90;;;;;;5075279;28;20068;-77
2023/04/21 06:03:54;;;;;;;42.47;30.83;;;11.40;99.90;;;;;;5078797;28;20057;-76
2023/04/21 06:06:21;;;;;;;77.10;60.80;;;11.30;99.90;;;;;;5075569;28;20063;-76
2023/04/21 06:08:49;;;;;;;39.28;31.15;;;11.10;99.90;;;;;;5071946;28;20040;-75
2023/04/21 06:11:16;;;;;;;35.67;29.10;;;11.40;99.90;;;;;;5062881;28;20067;-77
2023/04/21 06:13:44;;;;;;;38.67;28.67;;;11.90;99.90;;;;;;5061082;28;20060;-73
2023/04/21 06:16:13;;;;;;;36.20;29.15;;;12.30;99.90;;;;;;5072022;28;20041;-75
2023/04/21 06:18:40;;;;;;;32.60;27.33;;;12.90;99.90;;;;;;5063053;28;20033;-77
2023/04/21 06:21:08;;;;;;;33.53;26.80;;;13.30;99.90;;;;;;5075908;28;20065;-77
2023/04/21 06:23:35;;;;;;;30.98;25.73;;;13.60;99.90;;;;;;5066730;28;20075;-73
2023/04/21 06:26:05;;;;;;;29.88;23.98;;;14.20;99.90;;;;;;5081369;28;20098;-76
2023/04/21 06:28:33;;;;;;;29.67;23.55;;;14.70;99.90;;;;;;5079098;28;20353;-74
2023/04/21 06:31:01;;;;;;;57.95;43.63;;;15.10;99.90;;;;;;5068515;28;20112;-74
2023/04/21 06:33:30;;;;;;;63.92;53.35;;;15.30;99.90;;;;;;5070069;28;20113;-77
2023/04/21 06:35:58;;;;;;;28.67;23.67;;;15.10;99.90;;;;;;5061178;28;20634;-75
2023/04/21 06:38:25;;;;;;;28.80;23.05;;;15.10;99.90;;;;;;5060098;28;20051;-75
2023/04/21 06:40:53;;;;;;;28.25;22.10;;;15.10;99.90;;;;;;5060613;28;20036;-76
2023/04/21 06:43:21;;;;;;;32.95;23.98;;;15.00;99.90;;;;;;5059292;28;20041;-77
2023/04/21 06:45:49;;;;;;;31.92;24.50;;;15.40;99.90;;;;;;5058773;28;20037;-77
2023/04/21 06:48:16;;;;;;;30.48;25.23;;;15.60;99.90;;;;;;5057065;28;20409;-76
2023/04/21 06:50:45;;;;;;;32.80;25.33;;;15.80;99.90;;;;;;5057077;28;20106;-77
2023/04/21 06:53:12;;;;;;;32.97;25.85;;;15.90;99.90;;;;;;5065463;28;20108;-76
2023/04/21 06:55:40;;;;;;;34.47;25.50;;;16.00;99.90;;;;;;5076873;28;20053;-76
2023/04/21 06:58:07;;;;;;;33.85;25.42;;;16.10;99.90;;;;;;5065716;28;20072;-77
2023/04/21 07:00:35;;;;;;;33.60;26.73;;;16.20;99.90;;;;;;5072691;28;20044;-74
2023/04/21 07:03:02;;;;;;;38.70;25.67;;;16.50;99.90;;;;;;5058581;28;20052;-76
2023/04/21 07:05:33;;;;;;;46.33;27.88;;;16.40;99.90;;;;;;5055411;28;20113;-77
2023/04/21 07:08:02;;;;;;;39.40;26.27;;;16.40;99.90;;;;;;5059822;28;20033;-75
2023/04/21 07:10:31;;;;;;;34.33;26.15;;;16.50;99.90;;;;;;5054701;28;20048;-77
2023/04/21 07:13:01;;;;;;;36.28;26.75;;;16.90;99.90;;;;;;5059558;28;20160;-77
2023/04/21 07:15:28;;;;;;;38.70;27.88;;;16.90;96.50;;;;;;5056581;28;20083;-76
2023/04/21 07:17:57;;;;;;;52.45;28.85;;;17.20;96.20;;;;;;5067908;23;20146;-73
2023/04/21 07:20:25;;;;;;;37.70;25.95;;;17.50;93.70;;;;;;5046304;28;20065;-74
2023/04/21 07:22:52;;;;;;;38.20;26.10;;;17.30;92.20;;;;;;5050332;28;20148;-74
2023/04/21 07:25:21;;;;;;;38.60;26.08;;;17.00;92.50;;;;;;5054140;28;20480;-73
2023/04/21 07:27:49;;;;;;;38.08;25.23;;;16.80;93.70;;;;;;5016528;28;20048;-73
2023/04/21 07:30:17;;;;;;;32.92;21.95;;;17.00;94.50;;;;;;5034849;28;20067;-75
2023/04/21 07:32:45;;;;;;;30.75;21.73;;;17.40;92.50;;;;;;5048192;28;20052;-73
2023/04/21 07:35:12;;;;;;;34.92;22.55;;;17.70;90.70;;;;;;5048052;28;20086;-72
2023/04/21 07:37:40;;;;;;;30.90;20.65;;;17.70;87.80;;;;;;5049958;28;20515;-74
2023/04/21 07:40:09;;;;;;;31.80;22.73;;;17.90;86.00;;;;;;5051223;28;20040;-73
2023/04/21 07:42:38;;;;;;;29.98;20.95;;;17.80;84.10;;;;;;5051137;28;20045;-73
2023/04/21 07:45:06;;;;;;;29.58;21.08;;;17.40;84.30;;;;;;5051567;28;20127;-73
2023/04/21 07:47:34;;;;;;;30.58;22.33;;;16.90;86.50;;;;;;5051220;28;20037;-72
2023/04/21 07:50:02;;;;;;;34.33;23.60;;;17.20;88.20;;;;;;5052551;28;20155;-72
2023/04/21 07:52:29;;;;;;;30.08;22.33;;;17.40;86.90;;;;;;5051102;28;20124;-74
2023/04/21 07:54:56;;;;;;;30.02;22.38;;;17.80;85.70;;;;;;5051971;28;20051;-71
2023/04/21 07:57:24;;;;;;;32.88;22.92;;;18.00;85.00;;;;;;5051596;28;20102;-73
2023/04/21 07:59:53;;;;;;;34.92;23.35;;;18.10;83.90;;;;;;5052360;28;20041;-72
2023/04/21 08:02:20;;;;;;;34.80;24.08;;;18.20;84.10;;;;;;5032168;28;20076;-71
2023/04/21 08:04:48;;;;;;;35.97;22.95;;;18.40;82.30;;;;;;5052666;28;20060;-73
2023/04/21 08:07:15;;;;;;;29.85;22.40;;;18.60;81.00;;;;;;5057131;28;20041;-72
2023/04/21 08:09:43;;;;;;;31.75;21.85;;;18.50;79.90;;;;;;5042985;28;20128;-72
2023/04/21 08:12:10;;;;;;;27.98;21.13;;;18.50;79.80;;;;;;5051418;28;20045;-73
2023/04/21 08:14:37;;;;;;;30.58;22.30;;;18.50;80.00;;;;;;5032207;28;20042;-72
2023/04/21 08:17:06;;;;;;;29.33;20.13;;;18.40;79.90;;;;;;5034837;28;20045;-73
2023/04/21 08:19:34;;;;;;;27.40;20.85;;;18.30;79.70;;;;;;5052264;28;20045;-72
2023/04/21 08:22:01;;;;;;;29.63;20.20;;;18.50;79.80;;;;;;5050564;28;20144;-73
2023/04/21 08:24:29;;;;;;;23.42;16.92;;;18.70;78.00;;;;;;5051582;28;20516;-73
2023/04/21 08:26:56;;;;;;;20.45;15.38;;;18.60;76.70;;;;;;5050930;28;20094;-74
2023/04/21 08:29:24;;;;;;;22.40;16.73;;;18.80;76.00;;;;;;5050988;28;20048;-74
2023/04/21 08:31:51;;;;;;;19.88;15.13;;;18.80;75.50;;;;;;5033761;28;20269;-72
2023/04/21 08:34:20;;;;;;;21.38;14.93;;;19.10;75.40;;;;;;5051029;28;20412;-73
2023/04/21 08:36:47;;;;;;;19.50;13.85;;;19.50;73.90;;;;;;5050898;28;20053;-73
2023/04/21 08:39:15;;;;;;;19.20;13.43;;;19.70;72.10;;;;;;5050181;28;20052;-72
2023/04/21 08:41:43;;;;;;;21.23;13.93;;;19.70;70.50;;;;;;5051195;28;20068;-73
2023/04/21 08:44:11;;;;;;;18.08;14.63;;;19.70;69.50;;;;;;5052311;28;20149;-72
2023/04/21 08:46:39;;;;;;;16.73;11.90;;;19.60;68.90;;;;;;5052353;28;20052;-73
2023/04/21 08:49:09;;;;;;;14.90;11.45;;;19.50;68.30;;;;;;5050381;28;20089;-74
2023/04/21 08:51:38;;;;;;;21.95;10.50;;;19.70;68.30;;;;;;5050524;28;20055;-74
2023/04/21 08:54:06;;;;;;;18.25;11.75;;;20.00;67.00;;;;;;5050480;28;20145;-73
2023/04/21 08:56:34;;;;;;;24.33;15.00;;;20.10;66.60;;;;;;5050429;28;20053;-73
2023/04/21 08:59:02;;;;;;;20.30;12.70;;;20.40;66.30;;;;;;5051264;28;20036;-72
2023/04/21 09:01:30;;;;;;;20.20;12.68;;;20.50;65.50;;;;;;5050405;28;20070;-72
2023/04/21 09:04:16;;;;;;;17.80;12.40;;;20.80;64.80;;;;;;5049867;28;20493;-73
2023/04/21 09:06:45;;;;;;;15.52;11.75;;;21.00;64.10;;;;;;5049854;28;20045;-73
2023/04/21 09:09:12;;;;;;;16.92;12.35;;;20.40;63.70;;;;;;5050774;28;20051;-73
2023/04/21 09:11:40;;;;;;;19.80;12.45;;;20.30;64.60;;;;;;5049763;28;20155;-74
2023/04/21 09:14:08;;;;;;;17.48;12.30;;;20.30;64.50;;;;;;5051347;28;20128;-74
2023/04/21 09:16:36;;;;;;;16.58;11.30;;;20.30;65.00;;;;;;5050503;28;20121;-73
2023/04/21 09:19:13;;;;;;;16.05;11.23;;;20.10;65.00;;;;;;5050204;28;20076;-73
2023/04/21 09:21:45;;;;;;;16.27;11.85;;;19.60;65.00;;;;;;5032358;28;20590;-73
2023/04/21 09:24:13;;;;;;;18.00;11.60;;;19.30;66.00;;;;;;5043137;28;20049;-72
2023/04/21 09:26:43;;;;;;;22.05;12.50;;;19.10;65.60;;;;;;5037425;28;20504;-72
2023/04/21 09:29:10;;;;;;;17.45;11.25;;;19.00;66.90;;;;;;5040043;28;20075;-73
2023/04/21 09:31:38;;;;;;;17.73;11.98;;;19.00;67.30;;;;;;5049748;28;20405;-73
2023/04/21 09:34:18;;;;;;;20.65;12.93;;;19.00;67.10;;;;;;5049038;28;20057;-72
2023/04/21 09:36:47;;;;;;;22.73;12.80;;;19.10;69.00;;;;;;5049608;28;20121;-73
2023/04/21 09:39:15;;;;;;;21.52;12.52;;;19.10;71.90;;;;;;5049570;28;20053;-72
2023/04/21 09:41:44;;;;;;;21.55;13.88;;;19.20;73.80;;;;;;5049844;28;20138;-73
2023/04/21 09:44:12;;;;;;;22.25;15.48;;;19.10;78.00;;;;;;5031684;28;20428;-73
2023/04/21 09:46:43;;;;;;;26.35;16.30;;;18.80;83.00;;;;;;5048840;28;20049;-73
2023/04/21 09:49:13;;;;;;;25.02;16.48;;;18.80;82.80;;;;;;5048682;28;20049;-73
2023/04/21 09:51:41;;;;;;;26.85;17.13;;;18.90;83.40;;;;;;5049000;28;20115;-71
2023/04/21 09:54:15;;;;;;;26.67;16.23;;;19.20;83.50;;;;;;5029422;28;20122;-73
2023/04/21 09:56:45;;;;;;;27.50;16.58;;;19.00;81.80;;;;;;5048817;28;20051;-73
2023/04/21 09:59:20;;;;;;;24.05;16.70;;;19.10;84.10;;;;;;5014506;28;20512;-73
2023/04/21 10:01:49;;;;;;;27.85;17.52;;;19.20;90.80;;;;;;5048957;28;20075;-73
2023/04/21 10:04:18;;;;;;;29.10;17.20;;;19.00;90.90;;;;;;5027227;28;20121;-73
2023/04/21 10:06:47;;;;;;;27.98;21.08;;;19.00;98.80;;;;;;5029240;28;20042;-72
2023/04/21 10:09:18;;;;;;;31.63;21.92;;;19.00;99.90;;;;;;5036688;28;20057;-73
2023/04/21 10:11:46;;;;;;;31.23;21.63;;;19.00;99.90;;;;;;5048455;28;20071;-72
2023/04/21 10:14:13;;;;;;;31.90;22.02;;;18.80;99.90;;;;;;5049742;28;20128;-71
2023/04/21 10:16:42;;;;;;;27.60;19.58;;;18.60;99.90;;;;;;5048776;28;20053;-73
2023/04/21 10:19:24;;;;;;;30.73;19.60;;;18.60;99.90;;;;;;5048851;28;20068;-73
2023/04/21 10:21:52;;;;;;;25.02;16.13;;;18.70;99.90;;;;;;5048531;28;20037;-73
2023/04/21 10:24:21;;;;;;;28.50;15.77;;;18.90;99.90;;;;;;5048485;28;20056;-72
2023/04/21 10:26:51;;;;;;;25.17;16.17;;;18.90;99.90;;;;;;5049172;28;20517;-73
2023/04/21 10:29:29;;;;;;;25.33;17.58;;;19.00;99.90;;;;;;5049602;28;20041;-72
2023/04/21 10:31:57;;;;;;;22.98;15.85;;;19.30;94.50;;;;;;5049304;28;20048;-73
2023/04/21 10:34:36;;;;;;;23.52;13.40;;;19.70;91.20;;;;;;5048854;28;20048;-72
2023/04/21 10:37:19;;;;;;;15.30;9.80;;;20.00;83.80;;;;;;5048166;28;20045;-74
2023/04/21 10:39:53;;;;;;;18.25;10.15;;;19.80;79.10;;;;;;5048491;28;20432;-72
2023/04/21 10:42:23;;;;;;;21.60;11.85;;;19.60;79.60;;;;;;5048168;28;20072;-72
2023/04/21 10:45:02;;;;;;;14.93;10.05;;;19.60;78.60;;;;;;5048718;28;20041;-73
2023/04/21 10:47:35;;;;;;;20.15;13.35;;;19.80;77.70;;;;;;5048569;28;20048;-72
2023/04/21 10:50:15;;;;;;;13.82;8.93;;;20.00;75.40;;;;;;5050894;28;20033;-73
2023/04/21 10:52:51;;;;;;;16.45;9.68;;;20.30;71.90;;;;;;5048790;28;20053;-72
2023/04/21 10:55:21;;;;;;;14.27;7.68;;;20.50;70.00;;;;;;5051937;28;20045;-72
2023/04/21 10:57:49;;;;;;;14.02;7.85;;;20.80;64.70;;;;;;5053524;28;20041;-73
2023/04/21 11:00:19;;;;;;;15.73;9.57;;;20.90;64.10;;;;;;5049367;28;20562;-73
2023/04/21 11:02:57;;;;;;;22.73;10.65;;;21.00;64.70;;;;;;5049103;28;20366;-73
2023/04/21 11:05:34;;;;;;;16.50;7.20;;;21.00;64.20;;;;;;5049448;28;20048;-73
2023/04/21 11:08:11;;;;;;;18.63;7.68;;;20.70;62.20;;;;;;5049202;28;20340;-72
2023/04/21 11:10:50;;;;;;;12.18;7.30;;;20.30;63.50;;;;;;5048609;28;20041;-74
2023/04/21 11:13:18;;;;;;;8.70;4.35;;;20.00;63.70;;;;;;5048173;28;20041;-72
2023/04/21 11:16:00;;;;;;;12.63;5.05;;;19.90;59.60;;;;;;5048485;28;20045;-72
2023/04/21 11:18:40;;;;;;;14.45;5.90;;;19.90;58.60;;;;;;5047260;28;20051;-72
2023/04/21 11:21:14;;;;;;;9.50;4.22;;;19.90;58.30;;;;;;5013512;28;20511;-72
2023/04/21 11:23:42;;;;;;;10.00;4.55;;;20.00;58.10;;;;;;5048515;28;20045;-73
2023/04/21 11:26:11;;;;;;;11.35;4.93;;;20.10;57.80;;;;;;5049180;28;20079;-73
2023/04/21 11:28:41;;;;;;;11.40;4.85;;;20.20;57.40;;;;;;5047992;28;20060;-72
2023/04/21 11:31:08;;;;;;;12.57;5.93;;;20.40;57.20;;;;;;5047416;28;20087;-73
2023/04/21 11:33:37;;;;;;;13.15;6.90;;;20.50;57.50;;;;;;5048060;28;20524;-71
2023/04/21 11:36:06;;;;;;;12.23;8.60;;;20.40;60.70;;;;;;5035042;28;20043;-72
2023/04/21 11:38:41;;;;;;;14.10;8.35;;;20.30;63.80;;;;;;5044305;28;20072;-72
2023/04/21 11:41:10;;;;;;;12.73;8.45;;;20.00;65.40;;;;;;5048471;28;20048;-73
2023/04/21 11:43:38;;;;;;;18.30;10.02;;;19.80;66.20;;;;;;5047678;28;20041;-73
2023/04/21 11:46:13;;;;;;;16.75;9.10;;;19.80;66.50;;;;;;5048288;28;20041;-71
2023/04/21 11:48:40;;;;;;;17.70;9.53;;;19.50;66.60;;;;;;5047990;28;20037;-73
2023/04/21 11:51:15;;;;;;;19.48;8.30;;;19.50;67.40;;;;;;5046391;28;20044;-72
2023/04/21 11:53:42;;;;;;;13.35;8.75;;;19.40;67.40;;;;;;5047856;28;20056;-73
2023/04/21 11:56:11;;;;;;;14.68;7.95;;;19.20;66.70;;;;;;5048508;28;20041;-74
2023/04/21 11:58:39;;;;;;;14.63;7.78;;;19.30;67.40;;;;;;5037424;28;20053;-72
2023/04/21 12:01:10;;;;;;;13.65;8.05;;;19.40;66.60;;;;;;5052500;28;20095;-71
2023/04/21 12:03:38;;;;;;;18.55;8.10;;;19.60;66.30;;;;;;5047966;28;20122;-72
2023/04/21 12:06:06;;;;;;;14.02;7.20;;;19.70;64.90;;;;;;5047943;28;20038;-72
2023/04/21 12:08:33;;;;;;;12.40;7.30;;;19.60;63.80;;;;;;5048213;28;20138;-71
2023/04/21 12:11:03;;;;;;;16.30;7.30;;;19.50;63.00;;;;;;5049467;28;20043;-73
2023/04/21 12:13:32;;;;;;;13.48;6.50;;;19.40;63.20;;;;;;5048675;28;20040;-73
2023/04/21 12:16:03;;;;;;;20.23;7.80;;;19.30;63.60;;;;;;5031415;28;20045;-74
2023/04/21 12:18:33;;;;;;;17.77;9.35;;;19.00;65.00;;;;;;5035055;28;20037;-73
2023/04/21 12:21:02;;;;;;;14.48;7.80;;;19.20;66.00;;;;;;5060880;28;20037;-72
2023/04/21 12:23:30;;;;;;;15.60;7.57;;;19.50;65.80;;;;;;5065329;28;20040;-72
2023/04/21 12:25:58;;;;;;;14.15;6.75;;;19.60;65.40;;;;;;5063755;28;20043;-71
2023/04/21 12:28:26;;;;;;;11.65;7.18;;;19.70;64.90;;;;;;5034360;28;20393;-74
2023/04/21 12:30:55;;;;;;;13.27;7.57;;;19.90;63.20;;;;;;5032581;28;20108;-73
2023/04/21 12:33:22;;;;;;;14.43;7.95;;;20.30;62.50;;;;;;5050826;28;20140;-72
2023/04/21 12:35:50;;;;;;;16.08;7.90;;;20.50;60.00;;;;;;5050795;28;20040;-73
2023/04/21 12:38:17;;;;;;;13.38;7.45;;;20.60;60.00;;;;;;5051481;28;20488;-74
2023/04/21 12:40:45;;;;;;;16.20;7.45;;;20.80;58.50;;;;;;5033050;28;20064;-73